Terminal Aerodrome Forecast
Issued by NWS

Home | Current Version | Previous Version | Text Only | Print | Product List | Glossary On
Versions: 1 2 3 4 5 6 7 8 9 10 11 12 13 14 15 16 17 18 19 20 21 22 23 24 25 26 27
000
FTUS41 KOKX 060840 AAA
TAFSWF
TAF AMD
KSWF 060840Z 0609/0712 VRB03KT P6SM SCT250
     FM061400 07005KT P6SM BKN250
     FM061800 12005KT P6SM SCT040 BKN150
     FM062300 09006KT 5SM BR BKN030 BKN100
     FM070100 07005KT 3SM -RASN BR BKN012 OVC020
     FM070300 06004KT 2SM -SN BR BKN007 OVC010
     FM070700 04004KT 2SM -RASN BR BKN007 OVC010
      AMD NOT SKED=

USA.gov is the U.S. government's official web portal to all federal, state and local government web resources and services.